Time;durP1;ratioP1;P1;durP2;ratioP2;P2;SDS_P1;SDS_P2;PMS_P1;PMS_P2;Temp;Humidity;BMP_temperature;BMP_pressure;BME280_temperature;BME280_humidity;BME280_pressure;Samples;Min_cycle;Max_cycle;Signal;HPM_P1;HPM_P2
2022/05/23 00:00:51;;;;;;;;;;;;;;;15.76;61.07;100367.56;5089156;28;19920;-76
2022/05/23 00:03:17;;;;;;;;;;;;;;;15.72;61.68;100368.59;5088332;28;19924;-76
2022/05/23 00:05:43;;;;;;;;;;;;;;;15.72;61.92;100362.53;5086591;28;20549;-76
2022/05/23 00:08:08;;;;;;;;;;;;;;;15.72;62.19;100357.28;5083731;28;20019;-76
2022/05/23 00:10:33;;;;;;;;;;;;;;;15.70;61.10;100348.63;5084819;28;20376;-76
2022/05/23 00:12:59;;;;;;;;;;;;;;;15.67;60.80;100338.31;5086451;28;19930;-76
2022/05/23 00:15:24;;;;;;;;;;;;;;;15.67;61.06;100341.78;5084504;28;19928;-76
2022/05/23 00:17:50;;;;;;;;;;;;;;;15.60;61.27;100344.78;5088731;28;20022;-76
2022/05/23 00:20:16;;;;;;;;;;;;;;;15.56;61.52;100346.69;5067633;28;19963;-76
2022/05/23 00:22:41;;;;;;;;;;;;;;;15.61;61.20;100336.00;5085971;28;20010;-77
2022/05/23 00:25:07;;;;;;;;;;;;;;;15.53;61.67;100354.69;5088896;28;20022;-77
2022/05/23 00:27:34;;;;;;;;;;;;;;;15.53;62.07;100339.00;5081103;28;19939;-76
2022/05/23 00:29:59;;;;;;;;;;;;;;;15.50;62.27;100331.28;5090678;28;19962;-73
2022/05/23 00:35:17;;;;;;;;;;;;;;;15.55;61.90;100316.19;5084972;28;20355;-75
2022/05/23 00:37:43;;;;;;;;;;;;;;;15.47;61.09;100320.97;5085785;28;19985;-72
2022/05/23 00:40:11;;;;;;;;;;;;;;;15.48;62.10;100330.53;5087088;28;19923;-77
2022/05/23 00:45:25;;;;;;;;;;;;;;;15.47;60.63;100312.25;5079011;28;19928;-77
2022/05/23 00:47:52;;;;;;;;;;;;;;;15.50;60.62;100318.19;5069025;28;19924;-77
2022/05/23 00:50:18;;;;;;;;;;;;;;;15.49;61.41;100324.34;5050412;28;20340;-77
2022/05/23 00:52:47;;;;;;;;;;;;;;;15.49;61.75;100324.34;5072519;28;19920;-77
2022/05/23 00:55:17;;;;;;;;;;;;;;;15.53;61.00;100325.03;5087300;28;20011;-77
2022/05/23 00:57:45;;;;;;;;;;;;;;;15.53;60.20;100311.97;5088679;28;19939;-77
2022/05/23 01:00:10;;;;;;;;;;;;;;;15.58;60.86;100307.34;5086158;28;19928;-77
2022/05/23 01:02:37;;;;;;;;;;;;;;;15.59;60.78;100316.91;5087884;28;20377;-77
2022/05/23 01:05:04;;;;;;;;;;;;;;;15.58;60.11;100316.03;5070100;28;19927;-77
2022/05/23 01:07:29;;;;;;;;;;;;;;;15.57;60.76;100300.44;5069203;28;20545;-77
2022/05/23 01:09:54;;;;;;;;;;;;;;;15.61;60.50;100305.41;5071463;28;19920;-77
2022/05/23 01:12:21;;;;;;;;;;;;;;;15.67;59.58;100315.59;5068469;28;19931;-72
2022/05/23 01:14:50;;;;;;;;;;;;;;;15.65;61.01;100322.69;5067519;28;20348;-72
2022/05/23 01:17:15;;;;;;;;;;;;;;;15.60;60.61;100324.66;5096324;28;19924;-73
2022/05/23 01:19:40;;;;;;;;;;;;;;;15.62;60.63;100317.59;5087959;28;19947;-72
2022/05/23 01:22:18;;;;;;;;;;;;;;;15.63;60.13;100311.41;5068951;28;19946;-72
2022/05/23 01:24:57;;;;;;;;;;;;;;;15.65;60.39;100304.34;5083081;28;19921;-72
2022/05/23 01:27:22;;;;;;;;;;;;;;;15.62;61.00;100308.91;5088636;28;19932;-76
2022/05/23 01:29:48;;;;;;;;;;;;;;;15.61;60.19;100304.56;5088226;28;19943;-77
2022/05/23 01:32:14;;;;;;;;;;;;;;;15.62;60.25;100308.91;5089373;28;19931;-76
2022/05/23 01:34:42;;;;;;;;;;;;;;;15.60;60.92;100319.41;5064942;28;19967;-76
2022/05/23 01:37:07;;;;;;;;;;;;;;;15.64;59.50;100313.13;5092831;28;19924;-76
2022/05/23 01:39:32;;;;;;;;;;;;;;;15.64;59.25;100305.28;5086449;28;19924;-76
2022/05/23 01:41:57;;;;;;;;;;;;;;;15.66;60.73;100311.28;5086144;28;19967;-77
2022/05/23 01:44:23;;;;;;;;;;;;;;;15.62;59.88;100304.50;5089121;28;19921;-77
2022/05/23 01:46:48;;;;;;;;;;;;;;;15.62;59.38;100301.88;5083550;28;19935;-77
2022/05/23 01:49:13;;;;;;;;;;;;;;;15.66;58.54;100299.97;5071269;28;19931;-76
2022/05/23 01:51:39;;;;;;;;;;;;;;;15.66;57.53;100287.72;5084124;28;19924;-76
2022/05/23 01:54:04;;;;;;;;;;;;;;;15.66;58.38;100287.72;5088036;28;19931;-76
2022/05/23 01:56:29;;;;;;;;;;;;;;;15.69;57.71;100284.13;5090914;28;19912;-76
2022/05/23 02:01:39;;;;;;;;;;;;;;;15.63;58.60;100281.81;5084589;28;19931;-76
2022/05/23 02:04:04;;;;;;;;;;;;;;;15.59;58.96;100282.84;5065019;28;20015;-76
2022/05/23 02:06:29;;;;;;;;;;;;;;;15.62;59.12;100285.31;5057032;28;19928;-76
2022/05/23 02:08:55;;;;;;;;;;;;;;;15.62;59.80;100287.94;5070116;28;20334;-76
2022/05/23 02:11:20;;;;;;;;;;;;;;;15.56;59.61;100276.00;5067988;28;20436;-77
2022/05/23 02:13:46;;;;;;;;;;;;;;;15.61;60.21;100275.78;5085723;28;19932;-72
2022/05/23 02:16:11;;;;;;;;;;;;;;;15.60;59.44;100280.16;5085003;28;19939;-72
2022/05/23 02:18:36;;;;;;;;;;;;;;;15.59;59.99;100286.34;5066744;28;19946;-72
2022/05/23 02:21:02;;;;;;;;;;;;;;;15.56;60.43;100283.00;5090114;28;19959;-72
2022/05/23 02:23:27;;;;;;;;;;;;;;;15.56;60.14;100277.78;5087615;28;19920;-72
2022/05/23 02:25:52;;;;;;;;;;;;;;;15.59;59.06;100275.00;5087244;28;19927;-72
2022/05/23 02:28:18;;;;;;;;;;;;;;;15.59;58.88;100268.00;5089013;28;19967;-72
2022/05/23 02:30:45;;;;;;;;;;;;;;;15.58;59.20;100270.69;5086735;28;19966;-72
2022/05/23 02:33:10;;;;;;;;;;;;;;;15.58;59.01;100260.22;5066900;28;19924;-73
2022/05/23 02:35:36;;;;;;;;;;;;;;;15.56;59.49;100262.91;5089588;28;20293;-72
2022/05/23 02:38:01;;;;;;;;;;;;;;;15.55;59.81;100260.34;5071059;28;19916;-75
2022/05/23 02:40:26;;;;;;;;;;;;;;;15.55;58.94;100247.28;5067425;28;19928;-76
2022/05/23 02:42:52;;;;;;;;;;;;;;;15.53;58.38;100241.28;5087820;28;19927;-76
2022/05/23 02:45:17;;;;;;;;;;;;;;;15.61;59.19;100233.88;5062025;28;19912;-76
2022/05/23 02:47:43;;;;;;;;;;;;;;;15.55;58.38;100218.47;5091443;28;19924;-76
2022/05/23 02:50:09;;;;;;;;;;;;;;;15.59;58.53;100222.66;5068529;28;19928;-76
2022/05/23 02:52:35;;;;;;;;;;;;;;;15.57;58.77;100225.31;5083116;28;20058;-76
2022/05/23 02:55:01;;;;;;;;;;;;;;;15.57;59.34;100217.47;5083456;28;20019;-76
2022/05/23 02:57:26;;;;;;;;;;;;;;;15.54;59.75;100217.63;5089521;28;19931;-76
2022/05/23 02:59:51;;;;;;;;;;;;;;;15.54;59.37;100217.63;5085375;28;19924;-76
2022/05/23 03:05:00;;;;;;;;;;;;;;;15.53;59.93;100205.47;5086177;28;19927;-76
2022/05/23 03:07:25;;;;;;;;;;;;;;;15.54;60.01;100196.69;5085320;28;19924;-76
2022/05/23 03:09:51;;;;;;;;;;;;;;;15.55;59.25;100195.75;5090104;28;19927;-76
2022/05/23 03:12:16;;;;;;;;;;;;;;;15.53;59.72;100191.53;5085631;28;20404;-76
2022/05/23 03:14:41;;;;;;;;;;;;;;;15.55;59.68;100192.28;5085019;28;19920;-76
2022/05/23 03:17:07;;;;;;;;;;;;;;;15.52;59.66;100190.69;5089323;28;19920;-76
2022/05/23 03:19:39;;;;;;;;;;;;;;;15.52;61.15;100197.69;5066965;28;19927;-76
2022/05/23 03:27:36;;;;;;;;;;;;;;;15.49;60.64;100184.75;5084826;28;20042;-76
2022/05/23 03:30:03;;;;;;;;;;;;;;;15.54;60.03;100183.59;5085791;28;19928;-76
2022/05/23 03:32:28;;;;;;;;;;;;;;;15.54;59.70;100178.34;5084377;28;19982;-76
2022/05/23 03:34:54;;;;;;;;;;;;;;;15.55;60.16;100174.81;5089732;28;19928;-76
2022/05/23 03:37:19;;;;;;;;;;;;;;;15.55;59.88;100166.13;5085661;28;19963;-76
2022/05/23 03:39:44;;;;;;;;;;;;;;;15.55;59.86;100159.13;5080121;28;20421;-76
2022/05/23 03:42:09;;;;;;;;;;;;;;;15.52;59.67;100159.28;5063822;28;20034;-76
2022/05/23 03:44:35;;;;;;;;;;;;;;;15.55;59.86;100147.78;5079036;28;19928;-77
2022/05/23 03:47:00;;;;;;;;;;;;;;;15.55;59.70;100148.66;5069208;28;20050;-77
2022/05/23 03:49:27;;;;;;;;;;;;;;;15.52;59.57;100134.84;5084503;28;20373;-77
2022/05/23 03:51:54;;;;;;;;;;;;;;;15.55;59.34;100134.72;5085341;28;19924;-77
2022/05/23 03:54:19;;;;;;;;;;;;;;;15.54;59.62;100128.63;5080743;28;19971;-77
2022/05/23 03:56:44;;;;;;;;;;;;;;;15.54;59.41;100118.16;5085051;28;19955;-76
2022/05/23 03:59:10;;;;;;;;;;;;;;;15.57;60.07;100123.22;5091708;28;20450;-76
2022/05/23 04:01:37;;;;;;;;;;;;;;;15.52;59.66;100114.78;5066509;28;20448;-76
2022/05/23 04:04:05;;;;;;;;;;;;;;;15.53;59.19;100111.25;5088446;28;19930;-72
2022/05/23 04:06:30;;;;;;;;;;;;;;;15.53;59.07;100106.00;5083165;28;20663;-72
2022/05/23 04:08:56;;;;;;;;;;;;;;;15.53;59.54;100099.91;5079946;28;19920;-72
2022/05/23 04:11:21;;;;;;;;;;;;;;;15.54;59.02;100097.19;5063814;28;20015;-72
2022/05/23 04:13:47;;;;;;;;;;;;;;;15.56;59.24;100097.13;5083179;28;20023;-72
2022/05/23 04:16:12;;;;;;;;;;;;;;;15.54;59.06;100099.81;5091011;28;19930;-72
2022/05/23 04:18:38;;;;;;;;;;;;;;;15.48;60.01;100091.47;5088793;28;19932;-72
2022/05/23 04:21:04;;;;;;;;;;;;;;;15.55;59.03;100088.44;5068314;28;20300;-73
2022/05/23 04:23:29;;;;;;;;;;;;;;;15.58;58.94;100079.56;5068347;28;20031;-73
2022/05/23 04:25:55;;;;;;;;;;;;;;;15.55;59.13;100075.34;5089835;28;19974;-72
2022/05/23 04:28:20;;;;;;;;;;;;;;;15.57;59.54;100080.53;5087399;28;20561;-72
2022/05/23 04:30:46;;;;;;;;;;;;;;;15.61;59.47;100093.34;5086274;28;19928;-72
2022/05/23 04:35:59;;;;;;;;;;;;;;;15.57;59.31;100091.00;5092381;28;19923;-72
2022/05/23 04:38:24;;;;;;;;;;;;;;;15.66;60.04;100090.50;5087793;28;20419;-77
2022/05/23 04:40:50;;;;;;;;;;;;;;;15.64;59.71;100080.09;5089488;28;19928;-76
2022/05/23 04:43:16;;;;;;;;;;;;;;;15.60;59.29;100078.56;5094988;28;19928;-76
2022/05/23 04:45:41;;;;;;;;;;;;;;;15.61;59.65;100074.19;5073584;28;20303;-72
2022/05/23 04:50:51;;;;;;;;;;;;;;;15.64;59.78;100061.78;5091198;28;19971;-72
2022/05/23 04:53:17;;;;;;;;;;;;;;;15.63;59.45;100046.16;5077353;28;19927;-75
2022/05/23 04:55:43;;;;;;;;;;;;;;;15.63;59.42;100044.38;5086094;28;19931;-77
2022/05/23 04:58:09;;;;;;;;;;;;;;;15.58;59.68;100051.63;5073036;28;19962;-77
2022/05/23 05:00:34;;;;;;;;;;;;;;;15.59;60.56;100055.94;5091805;28;20658;-77
2022/05/23 05:03:00;;;;;;;;;;;;;;;15.63;60.21;100044.38;5062648;28;20396;-77
2022/05/23 05:05:26;;;;;;;;;;;;;;;15.64;60.88;100032.13;5086301;28;19924;-77
2022/05/23 05:07:51;;;;;;;;;;;;;;;15.62;60.64;100027.00;5092156;28;19932;-77
2022/05/23 05:10:17;;;;;;;;;;;;;;;15.61;61.14;100021.81;5067929;28;19978;-73
2022/05/23 05:12:43;;;;;;;;;;;;;;;15.63;60.52;100023.41;5086728;28;19920;-73
2022/05/23 05:15:08;;;;;;;;;;;;;;;15.69;60.18;100017.84;5086675;28;20177;-77
2022/05/23 05:17:33;;;;;;;;;;;;;;;15.67;60.47;100014.47;5087119;28;20262;-77
2022/05/23 05:19:59;;;;;;;;;;;;;;;15.67;60.86;100008.41;5084603;28;19928;-77
2022/05/23 05:22:24;;;;;;;;;;;;;;;15.67;60.42;100004.00;5085977;28;19931;-78
2022/05/23 05:24:49;;;;;;;;;;;;;;;15.71;61.00;100013.41;5090703;28;19924;-73
2022/05/23 05:27:15;;;;;;;;;;;;;;;15.62;60.74;100000.81;5097073;28;19920;-76
2022/05/23 05:29:40;;;;;;;;;;;;;;;15.63;61.11;100001.66;5090952;28;19961;-76
2022/05/23 05:32:27;;;;;;;;;;;;;;;15.67;60.87;99990.91;5074465;28;19924;-77
2022/05/23 05:34:59;;;;;;;;;;;;;;;15.68;60.65;99992.63;5082933;28;19931;-77
2022/05/23 05:37:45;;;;;;;;;;;;;;;15.68;60.76;99986.53;5087224;28;19930;-76
2022/05/23 05:40:12;;;;;;;;;;;;;;;15.73;61.39;99992.34;5087315;28;20401;-77
2022/05/23 05:42:40;;;;;;;;;;;;;;;15.76;60.56;99985.22;5086891;28;20542;-77
2022/05/23 05:45:14;;;;;;;;;;;;;;;15.77;60.64;99983.44;5088233;28;19973;-77
2022/05/23 05:47:42;;;;;;;;;;;;;;;15.84;60.66;99975.16;5080840;28;19940;-77
2022/05/23 05:50:11;;;;;;;;;;;;;;;15.85;61.08;99969.00;5099803;28;19967;-77
2022/05/23 05:52:37;;;;;;;;;;;;;;;15.89;60.99;99969.69;5075674;28;19926;-77
2022/05/23 05:55:04;;;;;;;;;;;;;;;15.93;60.33;99971.19;5088414;28;19916;-73
2022/05/23 05:57:30;;;;;;;;;;;;;;;15.96;61.15;99971.00;5085093;28;19926;-73
2022/05/23 05:59:55;;;;;;;;;;;;;;;15.99;61.41;99968.22;5098200;28;19919;-73
2022/05/23 06:02:20;;;;;;;;;;;;;;;16.02;61.05;99972.47;5097620;28;19927;-73
2022/05/23 06:04:46;;;;;;;;;;;;;;;16.05;61.27;99975.75;5094130;28;19920;-73
2022/05/23 06:12:47;;;;;;;;;;;;;;;16.11;61.19;99954.44;5085824;28;19973;-73
2022/05/23 06:15:13;;;;;;;;;;;;;;;16.14;60.89;99958.66;5087718;28;19928;-76
2022/05/23 06:17:39;;;;;;;;;;;;;;;16.13;61.28;99955.22;5089699;28;19924;-76
2022/05/23 06:20:05;;;;;;;;;;;;;;;16.12;60.97;99957.91;5074034;28;20031;-77
2022/05/23 06:22:30;;;;;;;;;;;;;;;16.15;60.96;99955.13;5082002;28;20012;-77
2022/05/23 06:24:55;;;;;;;;;;;;;;;16.16;61.79;99969.91;5084666;28;20381;-77
2022/05/23 06:27:21;;;;;;;;;;;;;;;16.16;61.07;99962.06;5085651;28;19928;-77
2022/05/23 06:29:46;;;;;;;;;;;;;;;16.13;60.63;99967.47;5083046;28;20096;-77
2022/05/23 06:32:12;;;;;;;;;;;;;;;16.18;61.80;99970.66;5065385;28;20036;-76
2022/05/23 06:34:37;;;;;;;;;;;;;;;16.21;61.44;99976.59;5088194;28;19946;-73
2022/05/23 06:37:02;;;;;;;;;;;;;;;16.22;61.18;99978.28;5086026;28;19969;-73
2022/05/23 06:39:28;;;;;;;;;;;;;;;16.22;60.52;99988.75;5084379;28;19927;-73
2022/05/23 06:41:53;;;;;;;;;;;;;;;16.29;60.23;99995.31;5084682;28;20038;-73
2022/05/23 06:44:19;;;;;;;;;;;;;;;16.33;60.57;99993.38;5082759;28;20659;-73
2022/05/23 06:46:46;;;;;;;;;;;;;;;16.36;60.39;99988.81;5081026;28;19919;-77
2022/05/23 06:49:12;;;;;;;;;;;;;;;16.38;60.98;99968.59;5066253;28;20001;-77
2022/05/23 06:51:38;;;;;;;;;;;;;;;16.36;60.63;99959.97;5085458;28;19951;-78
2022/05/23 06:54:03;;;;;;;;;;;;;;;16.39;60.77;99967.69;5071473;28;19974;-76
2022/05/23 06:56:29;;;;;;;;;;;;;;;16.44;60.57;99975.25;5087905;28;20515;-77
2022/05/23 06:58:55;;;;;;;;;;;;;;;16.41;60.41;99964.94;5048663;28;19966;-78
2022/05/23 07:01:20;;;;;;;;;;;;;;;16.38;60.11;99952.03;5067549;28;20303;-78
2022/05/23 07:03:46;;;;;;;;;;;;;;;16.42;60.33;99949.16;5068660;28;20402;-77
2022/05/23 07:14:23;;;;;;;;;;;;;;;16.42;60.19;99928.19;5083333;28;19954;-76
2022/05/23 07:16:48;;;;;;;;;;;;;;;16.42;60.22;99928.19;5082401;28;20168;-77
2022/05/23 07:19:14;;;;;;;;;;;;;;;16.44;60.44;99923.69;5070224;28;19934;-73
2022/05/23 07:21:39;;;;;;;;;;;;;;;16.44;60.60;99923.69;5085507;28;19934;-73
2022/05/23 07:24:04;;;;;;;;;;;;;;;16.45;60.25;99914.03;5087122;28;19920;-76
2022/05/23 07:26:30;;;;;;;;;;;;;;;16.48;60.92;99909.47;5088329;28;20058;-77
2022/05/23 07:28:56;;;;;;;;;;;;;;;16.45;60.40;99909.66;5065989;28;19924;-77
2022/05/23 07:31:22;;;;;;;;;;;;;;;16.48;60.61;99903.38;5091671;28;19916;-77
2022/05/23 07:33:47;;;;;;;;;;;;;;;16.48;60.09;99898.13;5067393;28;19928;-77
2022/05/23 07:36:13;;;;;;;;;;;;;;;16.46;60.40;99897.38;5099940;28;19916;-73
2022/05/23 07:38:39;;;;;;;;;;;;;;;16.46;60.65;99897.38;5101383;28;19919;-72
2022/05/23 07:41:07;;;;;;;;;;;;;;;16.48;60.24;99898.13;5088170;28;19928;-77
2022/05/23 07:43:35;;;;;;;;;;;;;;;16.55;60.78;99904.69;5085614;28;19931;-73
2022/05/23 07:46:07;;;;;;;;;;;;;;;16.50;60.47;99902.34;5083831;28;19924;-77
2022/05/23 07:48:32;;;;;;;;;;;;;;;16.51;60.48;99900.56;5086562;28;20388;-77
2022/05/23 07:50:58;;;;;;;;;;;;;;;16.51;60.26;99903.19;5054909;28;19919;-77
2022/05/23 08:01:34;;;;;;;;;;;;;;;16.60;60.27;99909.66;5086410;28;19931;-73
2022/05/23 08:04:00;;;;;;;;;;;;;;;16.61;60.30;99908.75;5070406;28;19924;-77
2022/05/23 08:06:25;;;;;;;;;;;;;;;16.57;60.21;99902.84;5052785;28;19920;-77
2022/05/23 08:08:50;;;;;;;;;;;;;;;16.57;60.24;99891.50;5069159;28;19990;-77
2022/05/23 08:11:17;;;;;;;;;;;;;;;16.62;59.84;99884.19;5072961;28;19982;-76
2022/05/23 08:13:47;;;;;;;;;;;;;;;16.62;60.05;99874.56;5090300;28;20389;-77
2022/05/23 08:16:12;;;;;;;;;;;;;;;16.67;59.67;99867.25;5077089;28;19927;-72
2022/05/23 08:18:37;;;;;;;;;;;;;;;16.65;60.09;99863.88;5093765;28;19931;-72
2022/05/23 08:21:03;;;;;;;;;;;;;;;16.69;59.75;99867.19;5088884;28;19924;-76
2022/05/23 08:23:29;;;;;;;;;;;;;;;16.65;59.83;99858.63;5089877;28;20028;-77
2022/05/23 08:25:55;;;;;;;;;;;;;;;16.67;60.71;99859.38;5086419;28;19960;-72
2022/05/23 08:28:20;;;;;;;;;;;;;;;16.75;59.99;99859.81;5088704;28;19963;-77
2022/05/23 08:30:46;;;;;;;;;;;;;;;16.75;60.28;99854.56;5088618;28;19920;-77
2022/05/23 08:33:11;;;;;;;;;;;;;;;16.83;60.55;99859.34;5097400;28;20346;-73
2022/05/23 08:35:37;;;;;;;;;;;;;;;16.84;62.09;99847.91;5095025;28;19916;-73
2022/05/23 08:38:04;;;;;;;;;;;;;;;16.83;60.66;99840.97;5091544;28;19924;-72
2022/05/23 08:40:48;;;;;;;;;;;;;;;16.91;60.08;99846.59;5091469;28;20023;-73
2022/05/23 08:43:18;;;;;;;;;;;;;;;16.91;60.79;99849.22;5081907;28;19924;-77
2022/05/23 08:45:44;;;;;;;;;;;;;;;16.82;60.00;99861.09;5084141;28;20024;-77
2022/05/23 08:48:28;;;;;;;;;;;;;;;16.90;59.91;99847.53;5066810;28;20031;-77
2022/05/23 08:51:01;;;;;;;;;;;;;;;16.89;60.18;99851.94;5088077;28;19920;-77
2022/05/23 08:53:37;;;;;;;;;;;;;;;16.95;59.26;99850.72;5086830;28;19927;-77
2022/05/23 08:56:12;;;;;;;;;;;;;;;17.00;60.73;99852.13;5075856;28;19924;-77
2022/05/23 08:58:52;;;;;;;;;;;;;;;16.95;59.55;99848.94;5089744;28;20380;-76
2022/05/23 09:01:23;;;;;;;;;;;;;;;17.01;59.79;99847.72;5065200;28;19928;-77
2022/05/23 09:03:48;;;;;;;;;;;;;;;16.94;59.33;99839.38;5086147;28;20638;-76
2022/05/23 09:06:29;;;;;;;;;;;;;;;16.91;60.50;99836.94;5086140;28;20018;-76
2022/05/23 09:09:01;;;;;;;;;;;;;;;17.02;60.41;99838.91;5090375;28;19920;-76
2022/05/23 09:11:40;;;;;;;;;;;;;;;17.02;60.64;99818.78;5088903;28;19982;-76
2022/05/23 09:14:07;;;;;;;;;;;;;;;16.90;60.01;99810.81;5094380;28;19924;-76
2022/05/23 09:16:36;;;;;;;;;;;;;;;16.95;60.50;99796.47;5090775;28;19920;-76
2022/05/23 09:19:10;;;;;;;;;;;;;;;17.00;60.87;99790.91;5102594;28;19923;-77
2022/05/23 09:24:19;;;;;;;;;;;;;;;17.03;61.34;99795.97;5095523;28;19964;-77
2022/05/23 09:26:45;;;;;;;;;;;;;;;17.02;61.07;99792.53;5097524;28;19920;-77
2022/05/23 09:29:11;;;;;;;;;;;;;;;16.96;61.73;99785.06;5078808;28;19928;-72
2022/05/23 09:31:53;;;;;;;;;;;;;;;17.08;61.45;99782.59;5091086;28;19975;-73
2022/05/23 09:34:33;;;;;;;;;;;;;;;17.05;59.90;99776.59;5092423;28;20348;-77
2022/05/23 09:36:59;;;;;;;;;;;;;;;17.14;61.32;99766.44;5084771;28;19943;-77
2022/05/23 09:39:25;;;;;;;;;;;;;;;16.99;60.39;99768.25;5080004;28;19977;-76
2022/05/23 09:47:44;;;;;;;;;;;;;;;17.26;61.11;99753.41;5088311;28;19989;-77
2022/05/23 09:50:10;;;;;;;;;;;;;;;17.28;62.07;99750.66;5089602;28;19927;-76
2022/05/23 09:52:47;;;;;;;;;;;;;;;17.21;61.98;99765.09;5070023;28;19931;-77
2022/05/23 09:55:14;;;;;;;;;;;;;;;17.35;60.10;99757.19;5095800;28;19924;-77
2022/05/23 09:57:49;;;;;;;;;;;;;;;17.33;60.66;99751.19;5108037;28;19968;-77
2022/05/23 10:00:18;;;;;;;;;;;;;;;17.29;59.12;99749.72;5088908;28;20376;-73
2022/05/23 10:02:52;;;;;;;;;;;;;;;17.23;58.97;99750.97;5088533;28;19943;-73
2022/05/23 10:05:35;;;;;;;;;;;;;;;17.26;59.24;99749.91;5091897;28;20309;-77
2022/05/23 10:08:03;;;;;;;;;;;;;;;17.15;58.95;99742.72;5091523;28;19943;-73
2022/05/23 10:10:35;;;;;;;;;;;;;;;17.29;61.26;99736.59;5097491;28;19984;-73
2022/05/23 10:13:23;;;;;;;;;;;;;;;17.33;61.51;99740.69;5094515;28;19920;-73
2022/05/23 10:15:57;;;;;;;;;;;;;;;17.32;59.24;99733.78;5073656;28;19924;-76
2022/05/23 10:18:27;;;;;;;;;;;;;;;17.39;61.94;99724.53;5094158;28;19924;-76
2022/05/23 10:20:52;;;;;;;;;;;;;;;17.37;61.19;99718.56;5085987;28;19916;-76
2022/05/23 10:23:21;;;;;;;;;;;;;;;17.31;60.27;99717.19;5089988;28;19926;-73
2022/05/23 10:25:49;;;;;;;;;;;;;;;17.17;59.01;99714.63;5103601;28;20407;-76
2022/05/23 10:28:18;;;;;;;;;;;;;;;17.32;63.38;99710.97;5084254;28;20192;-73
2022/05/23 10:30:49;;;;;;;;;;;;;;;17.42;59.63;99700.72;5098882;28;19928;-76
2022/05/23 10:33:14;;;;;;;;;;;;;;;17.31;63.05;99690.09;5098562;28;19920;-76
2022/05/23 10:35:46;;;;;;;;;;;;;;;17.19;59.63;99686.47;5090464;28;20339;-76
2022/05/23 10:44:11;;;;;;;;;;;;;;;17.35;60.04;99644.31;5092166;28;19931;-76
2022/05/23 10:46:36;;;;;;;;;;;;;;;17.15;61.35;99645.63;5048751;28;19924;-76
2022/05/23 10:49:07;;;;;;;;;;;;;;;17.44;59.13;99643.72;5087111;28;19932;-76
2022/05/23 10:51:36;;;;;;;;;;;;;;;17.22;60.93;99644.28;5100457;28;20239;-76
2022/05/23 10:54:01;;;;;;;;;;;;;;;17.19;59.55;99641.00;5089368;28;20429;-76
2022/05/23 10:56:36;;;;;;;;;;;;;;;17.12;59.27;99634.47;5087120;28;19927;-76
2022/05/23 10:59:14;;;;;;;;;;;;;;;17.56;61.03;99629.75;5092481;28;19931;-76
2022/05/23 11:01:39;;;;;;;;;;;;;;;17.62;59.62;99620.66;5087154;28;19963;-76
2022/05/23 11:04:11;;;;;;;;;;;;;;;17.37;64.42;99626.69;5087438;28;20475;-76
2022/05/23 11:06:51;;;;;;;;;;;;;;;17.34;60.31;99619.00;5097643;28;19972;-76
2022/05/23 11:09:35;;;;;;;;;;;;;;;17.69;59.80;99616.66;5082184;28;19971;-76
2022/05/23 11:12:03;;;;;;;;;;;;;;;17.65;62.00;99602.88;5103418;28;19911;-77
2022/05/23 11:14:47;;;;;;;;;;;;;;;17.50;60.65;99609.16;5103944;28;19974;-77
2022/05/23 11:17:22;;;;;;;;;;;;;;;17.75;61.45;99606.56;5092566;28;19915;-76
2022/05/23 11:19:47;;;;;;;;;;;;;;;17.35;58.92;99600.50;5101054;28;20474;-76
2022/05/23 11:22:20;;;;;;;;;;;;;;;17.54;62.86;99594.88;5098893;28;19915;-76
2022/05/23 11:25:03;;;;;;;;;;;;;;;17.34;61.90;99587.50;5099737;28;19959;-76
2022/05/23 11:35:59;;;;;;;;;;;;;;;17.58;62.31;99559.59;5092508;28;19922;-76
2022/05/23 11:38:25;;;;;;;;;;;;;;;17.41;59.46;99544.16;5094186;28;19960;-77
2022/05/23 11:40:50;;;;;;;;;;;;;;;17.73;63.91;99565.59;5062824;28;19971;-77
2022/05/23 11:43:17;;;;;;;;;;;;;;;17.54;64.64;99548.44;5079261;28;19924;-77
2022/05/23 11:48:39;;;;;;;;;;;;;;;17.86;65.29;99559.38;5088325;28;19971;-77
2022/05/23 11:51:13;;;;;;;;;;;;;;;17.54;60.84;99542.34;5088483;28;20511;-76
2022/05/23 11:53:43;;;;;;;;;;;;;;;17.52;66.29;99555.59;5092402;28;19916;-76
2022/05/23 11:56:09;;;;;;;;;;;;;;;17.44;59.01;99541.31;5089873;28;19923;-76
2022/05/23 11:58:40;;;;;;;;;;;;;;;17.51;63.70;99543.41;5085872;28;20350;-77
2022/05/23 12:01:12;;;;;;;;;;;;;;;17.61;63.54;99538.41;5073274;28;20620;-77
2022/05/23 12:03:49;;;;;;;;;;;;;;;17.36;59.88;99539.19;5076458;28;19920;-77
2022/05/23 12:06:18;;;;;;;;;;;;;;;17.98;66.54;99540.13;5083169;28;19977;-76
2022/05/23 12:08:59;;;;;;;;;;;;;;;17.80;59.80;99533.53;5084201;28;20045;-77
2022/05/23 12:11:26;;;;;;;;;;;;;;;17.68;64.60;99536.19;5071360;28;20392;-78
2022/05/23 12:13:57;;;;;;;;;;;;;;;17.43;60.47;99529.13;5087633;28;19936;-79
2022/05/23 12:16:32;;;;;;;;;;;;;;;17.60;60.61;99526.22;5089703;28;20372;-78
2022/05/23 12:19:17;;;;;;;;;;;;;;;17.35;59.86;99529.63;5064321;28;19928;-78
2022/05/23 12:21:44;;;;;;;;;;;;;;;17.35;60.28;99527.00;5086336;28;19931;-78
2022/05/23 12:24:12;;;;;;;;;;;;;;;17.83;63.52;99540.38;5070624;28;19927;-77
2022/05/23 12:26:39;;;;;;;;;;;;;;;17.56;61.97;99533.41;5091125;28;20770;-77
2022/05/23 12:29:23;;;;;;;;;;;;;;;17.53;60.42;99530.19;5059765;28;20397;-76
2022/05/23 12:32:10;;;;;;;;;;;;;;;17.52;61.14;99526.72;5081151;28;19928;-76
2022/05/23 12:34:40;;;;;;;;;;;;;;;17.44;59.99;99515.06;5083721;28;20195;-77
2022/05/23 12:37:12;;;;;;;;;;;;;;;17.59;61.15;99517.47;5087013;28;19928;-79
2022/05/23 12:39:44;;;;;;;;;;;;;;;17.40;60.73;99514.44;5067961;28;19927;-79
2022/05/23 12:42:18;;;;;;;;;;;;;;;17.66;63.55;99514.44;5071220;28;20520;-79
2022/05/23 12:44:43;;;;;;;;;;;;;;;17.51;59.99;99511.06;5088655;28;20454;-74
2022/05/23 12:47:32;;;;;;;;;;;;;;;17.59;67.28;99516.63;5094244;28;19928;-79
2022/05/23 12:50:15;;;;;;;;;;;;;;;17.59;61.90;99506.13;5084545;28;20450;-76
2022/05/23 12:52:44;;;;;;;;;;;;;;;17.50;61.89;99501.53;5102175;28;19983;-79
2022/05/23 12:55:18;;;;;;;;;;;;;;;17.38;60.65;99494.50;5096475;28;19982;-78
2022/05/23 12:58:02;;;;;;;;;;;;;;;17.34;61.42;99493.84;5099468;28;19920;-78
2022/05/23 13:00:31;;;;;;;;;;;;;;;17.44;66.32;99510.63;5094961;28;19920;-78
2022/05/23 13:03:08;;;;;;;;;;;;;;;17.70;66.96;99516.75;5085857;28;19970;-78
2022/05/23 13:05:43;;;;;;;;;;;;;;;17.64;67.22;99522.44;5094481;28;20372;-78
2022/05/23 13:08:20;;;;;;;;;;;;;;;17.55;66.69;99546.66;5086492;28;19924;-74
2022/05/23 13:10:57;;;;;;;;;;;;;;;17.90;81.48;99560.00;5098831;28;20009;-73
2022/05/23 13:13:40;;;;;;;;;;;;;;;17.70;83.48;99548.28;5096718;28;19935;-76
2022/05/23 13:16:15;;;;;;;;;;;;;;;17.64;85.14;99527.69;5068779;28;19931;-76
2022/05/23 13:24:14;;;;;;;;;;;;;;;17.58;85.79;99491.31;5086699;28;20388;-78
2022/05/23 13:26:39;;;;;;;;;;;;;;;17.60;86.67;99486.81;5091836;28;19926;-79
2022/05/23 13:29:09;;;;;;;;;;;;;;;17.50;85.71;99483.13;5071903;28;19928;-74
2022/05/23 13:31:34;;;;;;;;;;;;;;;17.54;86.53;99484.59;5093347;28;20339;-74
2022/05/23 13:34:00;;;;;;;;;;;;;;;17.52;85.60;99482.09;5073596;28;19932;-73
2022/05/23 13:36:26;;;;;;;;;;;;;;;17.55;86.15;99491.53;5072463;28;19930;-74
2022/05/23 13:39:03;;;;;;;;;;;;;;;17.49;84.70;99484.91;5095436;28;19924;-78
2022/05/23 13:41:30;;;;;;;;;;;;;;;17.47;83.81;99480.72;5098786;28;19923;-73
2022/05/23 13:43:55;;;;;;;;;;;;;;;17.54;85.12;99476.72;5106270;28;19920;-74
2022/05/23 13:46:22;;;;;;;;;;;;;;;17.56;86.65;99456.47;5085548;28;19927;-73
2022/05/23 13:48:50;;;;;;;;;;;;;;;17.60;87.38;99448.28;5092981;28;19938;-73
2022/05/23 13:51:28;;;;;;;;;;;;;;;17.50;84.48;99441.13;5087764;28;19917;-74
2022/05/23 13:54:00;;;;;;;;;;;;;;;17.55;84.72;99439.84;5091271;28;20014;-74
2022/05/23 13:56:26;;;;;;;;;;;;;;;17.62;85.61;99431.59;5094506;28;19981;-73
2022/05/23 13:58:55;;;;;;;;;;;;;;;17.60;84.67;99415.91;5070408;28;20641;-76
2022/05/23 14:01:41;;;;;;;;;;;;;;;17.57;84.03;99395.94;5070684;28;20880;-77
2022/05/23 14:04:09;;;;;;;;;;;;;;;17.63;83.46;99386.81;5089466;28;20057;-73